createdAt,value
2023-03-11T00:02:15.020Z,6.85
2023-03-11T00:04:41.756Z,7.88
2023-03-11T00:07:09.289Z,6.82
2023-03-11T00:09:36.153Z,7.80
2023-03-11T00:12:03.061Z,5.93
2023-03-11T00:14:29.730Z,6.57
2023-03-11T00:16:56.467Z,6.03
2023-03-11T00:19:23.255Z,5.72
2023-03-11T00:21:49.963Z,6.95
2023-03-11T00:24:17.014Z,5.43
2023-03-11T00:26:43.737Z,4.95
2023-03-11T00:29:10.403Z,4.78
2023-03-11T00:31:37.089Z,5.45
2023-03-11T00:34:03.845Z,5.35
2023-03-11T00:36:31.700Z,5.90
2023-03-11T00:38:59.155Z,5.40
2023-03-11T00:41:25.866Z,4.57
2023-03-11T00:43:52.608Z,4.47
2023-03-11T00:46:19.422Z,6.03
2023-03-11T00:48:46.147Z,6.97
2023-03-11T00:51:14.587Z,5.47
2023-03-11T00:53:41.783Z,5.88
2023-03-11T00:56:12.626Z,6.72
2023-03-11T00:58:39.644Z,6.00
2023-03-11T01:01:14.648Z,6.50
2023-03-11T01:03:41.749Z,6.70
2023-03-11T01:06:08.690Z,7.35
2023-03-11T01:08:35.636Z,5.72
2023-03-11T01:11:02.786Z,6.10
2023-03-11T01:13:29.927Z,6.45
2023-03-11T01:15:56.944Z,7.25
2023-03-11T01:18:23.694Z,6.80
2023-03-11T01:20:50.525Z,6.70
2023-03-11T01:23:17.768Z,5.70
2023-03-11T01:25:44.468Z,6.28
2023-03-11T01:28:11.525Z,6.18
2023-03-11T01:30:39.103Z,5.72
2023-03-11T01:33:05.977Z,5.65
2023-03-11T01:35:32.894Z,6.07
2023-03-11T01:37:59.713Z,5.63
2023-03-11T01:40:33.036Z,5.40
2023-03-11T01:43:00.959Z,6.47
2023-03-11T01:45:42.100Z,7.90
2023-03-11T01:48:09.595Z,4.93
2023-03-11T01:50:40.339Z,5.03
2023-03-11T01:53:07.243Z,4.75
2023-03-11T01:55:34.663Z,6.28
2023-03-11T01:58:03.339Z,5.10
2023-03-11T02:00:30.075Z,4.80
2023-03-11T02:02:58.590Z,4.30
2023-03-11T02:05:25.742Z,5.75
2023-03-11T02:07:53.717Z,4.55
2023-03-11T02:10:20.538Z,4.85
2023-03-11T02:12:47.342Z,6.07
2023-03-11T02:15:14.146Z,5.18
2023-03-11T02:17:41.422Z,5.53
2023-03-11T02:20:52.372Z,4.78
2023-03-11T02:23:19.772Z,5.10
2023-03-11T02:25:54.522Z,5.47
2023-03-11T02:28:21.318Z,6.18
2023-03-11T02:30:47.998Z,5.28
2023-03-11T02:33:14.942Z,4.85
2023-03-11T02:35:41.657Z,5.78
2023-03-11T02:38:08.435Z,5.85
2023-03-11T02:40:36.717Z,4.75
2023-03-11T02:43:05.857Z,4.57
2023-03-11T02:45:32.615Z,5.35
2023-03-11T02:47:59.304Z,5.10
2023-03-11T02:50:25.992Z,5.00
2023-03-11T02:52:52.878Z,4.65
2023-03-11T02:55:20.345Z,5.57
2023-03-11T02:57:47.797Z,5.18
2023-03-11T03:00:16.535Z,5.55
2023-03-11T03:02:43.764Z,5.25
2023-03-11T03:05:10.804Z,4.80
2023-03-11T03:07:37.636Z,5.07
2023-03-11T03:10:05.509Z,4.85
2023-03-11T03:12:32.332Z,4.10
2023-03-11T03:14:58.998Z,3.97
2023-03-11T03:17:25.708Z,4.45
2023-03-11T03:19:52.419Z,4.50
2023-03-11T03:22:19.117Z,5.10
2023-03-11T03:24:45.838Z,4.35
2023-03-11T03:27:12.524Z,4.47
2023-03-11T03:29:39.171Z,4.63
2023-03-11T03:32:06.346Z,5.93
2023-03-11T03:34:33.260Z,3.83
2023-03-11T03:36:59.933Z,3.78
2023-03-11T03:39:28.732Z,4.57
2023-03-11T03:41:56.775Z,3.60
2023-03-11T03:44:23.458Z,4.57
2023-03-11T03:46:50.215Z,4.90
2023-03-11T03:49:16.867Z,4.07
2023-03-11T03:51:43.509Z,5.07
2023-03-11T03:54:10.192Z,4.10
2023-03-11T03:56:36.845Z,4.80
2023-03-11T03:59:03.512Z,3.97
2023-03-11T04:01:30.250Z,3.60
2023-03-11T04:03:57.034Z,4.43
2023-03-11T04:06:25.412Z,4.78
2023-03-11T04:08:52.465Z,3.88
2023-03-11T04:11:19.561Z,3.53
2023-03-11T04:13:46.563Z,4.53
2023-03-11T04:16:18.159Z,4.25
2023-03-11T04:18:44.934Z,4.75
2023-03-11T04:21:11.783Z,3.92
2023-03-11T04:23:38.486Z,5.18
2023-03-11T04:26:05.147Z,5.38
2023-03-11T04:28:31.811Z,4.05
2023-03-11T04:30:58.788Z,4.80
2023-03-11T04:33:25.463Z,4.70
2023-03-11T04:35:52.112Z,3.80
2023-03-11T04:38:18.867Z,4.32
2023-03-11T04:40:45.573Z,4.68
2023-03-11T04:43:12.247Z,4.18
2023-03-11T04:45:44.653Z,4.75
2023-03-11T04:48:11.290Z,4.55
2023-03-11T04:50:37.976Z,4.20
2023-03-11T04:53:04.649Z,3.50
2023-03-11T04:55:31.377Z,3.50
2023-03-11T04:57:58.038Z,4.53
2023-03-11T05:00:24.943Z,3.80
2023-03-11T05:02:51.852Z,3.53
2023-03-11T05:05:21.371Z,3.75
2023-03-11T05:07:48.356Z,3.85
2023-03-11T05:10:15.106Z,4.03
2023-03-11T05:12:41.778Z,3.85
2023-03-11T05:15:08.654Z,3.72
2023-03-11T05:17:35.309Z,3.65
2023-03-11T05:20:02.039Z,3.92
2023-03-11T05:22:28.820Z,3.63
2023-03-11T05:24:55.808Z,4.28
2023-03-11T05:27:22.462Z,2.55
2023-03-11T05:29:49.141Z,3.92
2023-03-11T05:32:15.875Z,3.00
2023-03-11T05:34:42.658Z,3.95
2023-03-11T05:37:09.319Z,2.85
2023-03-11T05:39:37.677Z,2.55
2023-03-11T05:42:05.188Z,2.83
2023-03-11T05:44:32.136Z,2.78
2023-03-11T05:46:58.973Z,2.92
2023-03-11T05:49:25.710Z,3.00
2023-03-11T05:51:55.620Z,2.45
2023-03-11T05:54:23.440Z,3.50
2023-03-11T05:56:53.103Z,3.10
2023-03-11T05:59:19.975Z,3.42
2023-03-11T06:01:46.763Z,2.75
2023-03-11T06:04:13.732Z,2.67
2023-03-11T06:06:43.738Z,3.05
2023-03-11T06:09:12.640Z,2.90
2023-03-11T06:11:39.339Z,2.72
2023-03-11T06:14:06.084Z,3.20
2023-03-11T06:16:32.948Z,3.00
2023-03-11T06:19:02.802Z,3.17
2023-03-11T06:21:29.473Z,2.47
2023-03-11T06:23:56.197Z,2.17
2023-03-11T06:26:23.310Z,2.83
2023-03-11T06:28:50.575Z,2.10
2023-03-11T06:31:22.490Z,2.33
2023-03-11T06:33:49.297Z,2.38
2023-03-11T06:36:17.024Z,1.90
2023-03-11T06:38:43.676Z,1.85
2023-03-11T06:41:10.432Z,2.15
2023-03-11T06:43:37.308Z,3.22
2023-03-11T06:46:16.027Z,2.45
2023-03-11T06:48:42.855Z,1.88
2023-03-11T06:51:10.032Z,2.42
2023-03-11T06:53:36.704Z,4.35
2023-03-11T06:56:11.572Z,2.22
2023-03-11T06:58:39.190Z,2.60
2023-03-11T07:01:11.370Z,1.92
2023-03-11T07:03:38.189Z,3.30
2023-03-11T07:06:06.691Z,2.03
2023-03-11T07:08:33.502Z,2.15
2023-03-11T07:11:05.321Z,2.33
2023-03-11T07:13:32.081Z,2.40
2023-03-11T07:16:07.121Z,2.00
2023-03-11T07:18:37.196Z,2.55
2023-03-11T07:21:05.201Z,2.70
2023-03-11T07:23:32.113Z,2.10
2023-03-11T07:25:58.941Z,2.08
2023-03-11T07:28:26.044Z,2.05
2023-03-11T07:30:53.174Z,1.70
2023-03-11T07:33:20.802Z,2.33
2023-03-11T07:35:49.379Z,1.77
2023-03-11T07:38:17.909Z,1.90
2023-03-11T07:40:44.744Z,2.38
2023-03-11T07:43:11.509Z,2.47
2023-03-11T07:45:38.353Z,2.10
2023-03-11T07:48:05.413Z,2.35
2023-03-11T07:50:32.077Z,1.80
2023-03-11T07:52:58.788Z,2.55
2023-03-11T07:55:25.537Z,2.60
2023-03-11T07:57:52.441Z,2.15
2023-03-11T08:00:19.805Z,1.75
2023-03-11T08:02:46.521Z,2.55
2023-03-11T08:05:13.213Z,2.13
2023-03-11T08:07:39.997Z,2.45
2023-03-11T08:10:07.143Z,2.00
2023-03-11T08:12:33.831Z,2.47
2023-03-11T08:15:00.616Z,2.05
2023-03-11T08:17:27.321Z,1.80
2023-03-11T08:19:53.974Z,1.80
2023-03-11T08:22:20.832Z,3.17
2023-03-11T08:24:51.815Z,1.80
2023-03-11T08:27:18.590Z,1.92
2023-03-11T08:29:45.308Z,2.92
2023-03-11T08:32:12.119Z,1.90
2023-03-11T08:34:39.545Z,2.22
2023-03-11T08:37:06.912Z,2.75
2023-03-11T08:39:33.635Z,1.95
2023-03-11T08:42:00.405Z,2.40
2023-03-11T08:44:27.095Z,1.80
2023-03-11T08:46:54.317Z,2.53
2023-03-11T08:49:20.986Z,1.85
2023-03-11T08:51:47.723Z,1.63
2023-03-11T08:54:14.448Z,2.17
2023-03-11T08:56:41.115Z,1.90
2023-03-11T08:59:08.598Z,2.10
2023-03-11T09:01:35.343Z,2.30
2023-03-11T09:04:02.129Z,2.00
2023-03-11T09:06:30.407Z,2.45
2023-03-11T09:08:57.334Z,2.40
2023-03-11T09:11:24.403Z,2.22
2023-03-11T09:13:51.115Z,1.65
2023-03-11T09:16:20.009Z,1.85
2023-03-11T09:18:46.734Z,1.80
2023-03-11T09:21:13.486Z,1.98
2023-03-11T09:23:42.790Z,1.55
2023-03-11T09:26:10.598Z,1.83
2023-03-11T09:28:37.315Z,2.17
2023-03-11T09:31:04.152Z,1.38
2023-03-11T09:33:30.900Z,3.20
2023-03-11T09:35:58.952Z,1.83
2023-03-11T09:38:25.718Z,3.80
2023-03-11T09:41:15.514Z,1.40
2023-03-11T09:44:00.484Z,1.55
2023-03-11T09:46:33.871Z,1.60
2023-03-11T09:49:18.983Z,1.55
2023-03-11T09:52:03.290Z,1.23
2023-03-11T09:54:30.670Z,1.60
2023-03-11T09:56:57.358Z,1.20
2023-03-11T09:59:30.190Z,1.92
2023-03-11T10:01:56.922Z,1.27
2023-03-11T10:04:44.723Z,1.23
2023-03-11T10:07:21.668Z,1.40
2023-03-11T10:09:52.548Z,1.00
2023-03-11T10:12:21.487Z,1.17
2023-03-11T10:15:05.890Z,1.00
2023-03-11T10:20:13.118Z,1.35
2023-03-11T10:23:17.476Z,1.80
2023-03-11T10:26:09.158Z,1.17
2023-03-11T10:28:37.507Z,1.90
2023-03-11T10:31:20.240Z,1.27
2023-03-11T10:33:52.170Z,1.92
2023-03-11T10:36:24.326Z,1.05
2023-03-11T10:38:52.295Z,2.35
2023-03-11T10:41:21.213Z,1.40
2023-03-11T10:43:52.361Z,1.02
2023-03-11T10:46:27.313Z,1.05
2023-03-11T10:48:54.134Z,1.63
2023-03-11T10:51:33.545Z,1.63
2023-03-11T10:54:01.269Z,1.63
2023-03-11T10:56:35.617Z,1.38
2023-03-11T10:59:03.235Z,1.73
2023-03-11T11:01:30.161Z,1.52
2023-03-11T11:03:58.163Z,1.35
2023-03-11T11:06:28.865Z,1.10
2023-03-11T11:09:26.837Z,1.10
2023-03-11T11:12:10.310Z,1.10
2023-03-11T11:14:47.291Z,1.30
2023-03-11T11:17:25.144Z,1.48
2023-03-11T11:19:51.817Z,1.65
2023-03-11T11:22:20.250Z,1.20
2023-03-11T11:24:47.527Z,1.58
2023-03-11T11:27:17.185Z,1.60
2023-03-11T11:29:44.142Z,1.60
2023-03-11T11:32:19.734Z,1.80
2023-03-11T11:34:59.509Z,1.80
2023-03-11T11:37:31.716Z,1.40
2023-03-11T11:40:11.186Z,1.50
2023-03-11T11:42:39.281Z,1.65
2023-03-11T11:45:17.432Z,2.13
2023-03-11T11:47:47.269Z,1.67
2023-03-11T11:50:33.133Z,1.35
2023-03-11T11:53:13.120Z,2.10
2023-03-11T11:55:42.277Z,1.60
2023-03-11T11:58:14.593Z,1.02
2023-03-11T12:00:50.024Z,1.35
2023-03-11T12:03:38.894Z,1.38
2023-03-11T12:06:32.015Z,0.82
2023-03-11T12:09:00.598Z,1.00
2023-03-11T12:11:34.267Z,1.50
2023-03-11T12:14:19.250Z,1.52
2023-03-11T12:16:48.713Z,0.88
2023-03-11T12:19:17.474Z,1.00
2023-03-11T12:21:53.346Z,1.38
2023-03-11T12:24:22.865Z,1.00
2023-03-11T12:26:49.818Z,1.27
2023-03-11T12:29:29.558Z,2.08
2023-03-11T12:31:56.218Z,1.70
2023-03-11T12:34:22.908Z,1.25
2023-03-11T12:36:49.605Z,1.23
2023-03-11T12:39:31.755Z,2.25
2023-03-11T12:42:10.836Z,1.63
2023-03-11T12:44:38.228Z,2.40
2023-03-11T12:47:08.035Z,1.60
2023-03-11T12:49:35.815Z,1.35
2023-03-11T12:52:06.565Z,1.73
2023-03-11T12:54:34.259Z,2.72
2023-03-11T12:57:15.860Z,1.63
2023-03-11T12:59:45.605Z,2.25
2023-03-11T13:02:44.372Z,0.98
2023-03-11T13:05:39.424Z,1.05
2023-03-11T13:08:12.391Z,1.67
2023-03-11T13:10:43.446Z,1.30
2023-03-11T13:13:25.508Z,0.88
2023-03-11T13:15:52.575Z,1.13
2023-03-11T13:18:30.425Z,1.27
2023-03-11T13:20:57.948Z,1.00
2023-03-11T13:23:25.990Z,0.93
2023-03-11T13:25:55.377Z,1.00
2023-03-11T13:28:28.052Z,0.95
2023-03-11T13:31:04.074Z,0.98
2023-03-11T13:33:58.179Z,2.65
2023-03-11T13:36:37.181Z,0.98
2023-03-11T13:39:23.879Z,1.15
2023-03-11T13:41:50.651Z,5.03
2023-03-11T13:44:20.177Z,1.83
2023-03-11T13:46:49.897Z,1.33
2023-03-11T13:49:40.231Z,1.55
2023-03-11T13:52:09.583Z,1.80
2023-03-11T13:54:38.511Z,1.08
2023-03-11T13:57:05.249Z,1.02
2023-03-11T13:59:33.770Z,1.10
2023-03-11T14:02:03.878Z,1.50
2023-03-11T14:04:31.775Z,2.45
2023-03-11T14:06:59.107Z,1.55
2023-03-11T14:09:27.080Z,2.78
2023-03-11T14:11:54.708Z,1.20
2023-03-11T14:15:00.942Z,1.10
2023-03-11T14:17:27.732Z,1.15
2023-03-11T14:20:12.067Z,1.23
2023-03-11T14:25:09.852Z,1.25
2023-03-11T14:27:39.920Z,1.38
2023-03-11T14:30:06.976Z,1.38
2023-03-11T14:32:34.631Z,1.02
2023-03-11T14:35:01.548Z,0.85
2023-03-11T14:37:35.443Z,1.25
2023-03-11T14:40:02.505Z,1.52
2023-03-11T14:42:32.628Z,2.38
2023-03-11T14:45:15.234Z,1.48
2023-03-11T14:47:43.890Z,1.95
2023-03-11T14:50:18.611Z,1.10
2023-03-11T14:52:49.313Z,1.20
2023-03-11T14:55:19.343Z,0.93
2023-03-11T14:58:01.421Z,1.13
2023-03-11T15:00:30.242Z,1.00
2023-03-11T15:03:13.909Z,1.42
2023-03-11T15:05:52.320Z,1.83
2023-03-11T15:08:20.209Z,1.67
2023-03-11T15:11:05.847Z,1.20
2023-03-11T15:13:33.033Z,1.63
2023-03-11T15:16:03.926Z,1.73
2023-03-11T15:18:37.890Z,1.15
2023-03-11T15:23:38.977Z,1.38
2023-03-11T15:26:06.818Z,1.33
2023-03-11T15:28:34.182Z,1.20
2023-03-11T15:31:17.040Z,1.17
2023-03-11T15:33:44.148Z,1.58
2023-03-11T15:36:33.682Z,1.27
2023-03-11T15:39:32.407Z,1.08
2023-03-11T15:41:59.556Z,1.40
2023-03-11T15:44:37.239Z,1.70
2023-03-11T15:47:04.355Z,1.10
2023-03-11T15:49:31.095Z,1.70
2023-03-11T15:52:01.315Z,1.15
2023-03-11T15:54:28.304Z,1.60
2023-03-11T15:56:56.240Z,1.05
2023-03-11T15:59:22.988Z,1.40
2023-03-11T16:01:49.976Z,1.10
2023-03-11T16:04:18.157Z,1.30
2023-03-11T16:06:46.803Z,1.17
2023-03-11T16:09:15.124Z,2.17
2023-03-11T16:11:42.335Z,0.98
2023-03-11T16:14:16.856Z,2.03
2023-03-11T16:16:44.159Z,1.13
2023-03-11T16:19:11.364Z,0.80
2023-03-11T16:21:41.137Z,1.50
2023-03-11T16:24:08.058Z,0.88
2023-03-11T16:26:35.526Z,1.08
2023-03-11T16:29:16.609Z,1.63
2023-03-11T16:31:45.059Z,1.25
2023-03-11T16:34:11.912Z,1.80
2023-03-11T16:36:38.638Z,1.10
2023-03-11T16:39:05.408Z,1.25
2023-03-11T16:41:42.300Z,1.30
2023-03-11T16:44:09.869Z,1.48
2023-03-11T16:46:36.942Z,1.20
2023-03-11T16:49:04.015Z,1.42
2023-03-11T16:51:33.640Z,0.98
2023-03-11T16:54:00.494Z,1.77
2023-03-11T16:56:27.301Z,0.93
2023-03-11T16:58:54.011Z,1.20
2023-03-11T17:01:21.774Z,1.27
2023-03-11T17:03:52.680Z,1.35
2023-03-11T17:06:19.952Z,1.00
2023-03-11T17:08:49.235Z,1.65
2023-03-11T17:11:20.858Z,0.88
2023-03-11T17:13:47.760Z,1.02
2023-03-11T17:16:14.600Z,1.00
2023-03-11T17:18:41.461Z,1.40
2023-03-11T17:21:13.091Z,1.23
2023-03-11T17:23:39.811Z,0.70
2023-03-11T17:26:14.188Z,1.38
2023-03-11T17:28:41.245Z,0.85
2023-03-11T17:31:15.207Z,1.63
2023-03-11T17:36:09.538Z,1.08
2023-03-11T17:38:36.465Z,0.98
2023-03-11T17:41:08.112Z,1.73
2023-03-11T17:43:34.902Z,1.73
2023-03-11T17:46:02.017Z,1.35
2023-03-11T17:48:28.742Z,1.05
2023-03-11T17:50:55.505Z,2.17
2023-03-11T17:53:22.306Z,1.63
2023-03-11T17:55:49.042Z,1.30
2023-03-11T17:58:15.696Z,1.50
2023-03-11T18:00:42.395Z,1.42
2023-03-11T18:03:09.105Z,1.25
2023-03-11T18:05:37.657Z,1.35
2023-03-11T18:08:04.428Z,1.42
2023-03-11T18:10:31.181Z,1.17
2023-03-11T18:12:57.894Z,1.52
2023-03-11T18:15:24.700Z,1.52
2023-03-11T18:17:51.403Z,1.40
2023-03-11T18:20:18.135Z,2.00
2023-03-11T18:22:46.672Z,1.58
2023-03-11T18:25:13.913Z,2.30
2023-03-11T18:27:40.679Z,2.20
2023-03-11T18:30:08.252Z,2.03
2023-03-11T18:32:35.030Z,2.17
2023-03-11T18:35:01.777Z,2.88
2023-03-11T18:37:28.454Z,2.42
2023-03-11T18:39:55.190Z,2.08
2023-03-11T18:42:22.159Z,2.50
2023-03-11T18:44:48.855Z,2.20
2023-03-11T18:47:15.557Z,2.28
2023-03-11T18:49:42.291Z,2.60
2023-03-11T18:52:09.139Z,2.63
2023-03-11T18:54:35.975Z,2.78
2023-03-11T18:57:02.724Z,2.53
2023-03-11T18:59:29.503Z,2.80
2023-03-11T19:01:56.210Z,2.65
2023-03-11T19:04:23.057Z,2.72
2023-03-11T19:06:50.203Z,2.35
2023-03-11T19:09:18.449Z,2.80
2023-03-11T19:11:45.679Z,3.15
2023-03-11T19:14:12.520Z,3.88
2023-03-11T19:16:39.249Z,2.55
2023-03-11T19:19:05.959Z,2.70
2023-03-11T19:21:32.727Z,2.45
2023-03-11T19:24:00.304Z,3.55
2023-03-11T19:26:43.237Z,4.00
2023-03-11T19:29:11.498Z,4.10
2023-03-11T19:31:38.248Z,3.40
2023-03-11T19:34:04.911Z,4.22
2023-03-11T19:36:31.669Z,2.70
2023-03-11T19:38:58.460Z,2.95
2023-03-11T19:41:25.209Z,2.83
2023-03-11T19:43:52.319Z,2.30
2023-03-11T19:46:22.549Z,3.80
2023-03-11T19:48:49.520Z,3.10
2023-03-11T19:51:17.373Z,4.65
2023-03-11T19:53:45.822Z,2.90
2023-03-11T19:56:12.553Z,2.85
2023-03-11T19:58:41.176Z,2.85
2023-03-11T20:01:07.948Z,4.90
2023-03-11T20:03:34.764Z,2.30
2023-03-11T20:06:05.482Z,3.20
2023-03-11T20:08:36.633Z,2.65
2023-03-11T20:11:04.180Z,3.03
2023-03-11T20:13:30.928Z,3.20
2023-03-11T20:16:07.687Z,3.05
2023-03-11T20:18:34.601Z,3.03
2023-03-11T20:21:08.230Z,2.85
2023-03-11T20:23:35.210Z,3.38
2023-03-11T20:26:09.261Z,3.40
2023-03-11T20:28:35.997Z,4.25
2023-03-11T20:31:09.720Z,3.92
2023-03-11T20:33:37.415Z,2.90
2023-03-11T20:36:08.899Z,3.97
2023-03-11T20:38:35.977Z,3.35
2023-03-11T20:41:06.173Z,4.20
2023-03-11T20:43:33.349Z,4.20
2023-03-11T20:46:00.519Z,6.22
2023-03-11T20:48:27.630Z,4.13
2023-03-11T20:50:54.386Z,4.03
2023-03-11T20:53:21.084Z,4.53
2023-03-11T20:55:48.133Z,4.60
2023-03-11T20:58:15.222Z,4.38
2023-03-11T21:00:41.932Z,4.13
2023-03-11T21:03:08.694Z,3.72
2023-03-11T21:05:39.036Z,5.22
2023-03-11T21:08:06.026Z,4.65
2023-03-11T21:10:32.914Z,5.20
2023-03-11T21:12:59.731Z,4.97
2023-03-11T21:15:26.470Z,4.63
2023-03-11T21:17:53.255Z,5.82
2023-03-11T21:20:20.203Z,5.85
2023-03-11T21:22:46.990Z,4.65
2023-03-11T21:25:13.988Z,5.57
2023-03-11T21:27:41.036Z,5.22
2023-03-11T21:30:09.120Z,6.28
2023-03-11T21:32:36.183Z,5.32
2023-03-11T21:35:04.029Z,5.28
2023-03-11T21:37:32.925Z,5.70
2023-03-11T21:39:59.893Z,5.28
2023-03-11T21:42:29.336Z,5.43
2023-03-11T21:44:56.274Z,5.78
2023-03-11T21:47:23.195Z,5.72
2023-03-11T21:49:50.044Z,6.00
2023-03-11T21:52:17.178Z,5.38
2023-03-11T21:54:43.992Z,7.55
2023-03-11T21:57:11.349Z,6.13
2023-03-11T21:59:38.706Z,6.72
2023-03-11T22:02:11.467Z,5.90
2023-03-11T22:04:38.439Z,7.38
2023-03-11T22:07:07.812Z,9.55
2023-03-11T22:09:34.870Z,7.68
2023-03-11T22:12:01.849Z,7.25
2023-03-11T22:14:28.859Z,7.13
2023-03-11T22:16:56.190Z,8.02
2023-03-11T22:19:23.213Z,6.78
2023-03-11T22:21:50.038Z,7.00
2023-03-11T22:24:20.353Z,6.20
2023-03-11T22:26:47.050Z,7.22
2023-03-11T22:29:13.892Z,6.78
2023-03-11T22:31:40.701Z,7.00
2023-03-11T22:34:07.489Z,6.00
2023-03-11T22:36:34.224Z,6.88
2023-03-11T22:39:02.813Z,6.63
2023-03-11T22:41:29.989Z,6.65
2023-03-11T22:43:57.040Z,6.55
2023-03-11T22:46:24.317Z,6.57
2023-03-11T22:48:51.483Z,6.78
2023-03-11T22:51:18.581Z,5.82
2023-03-11T22:53:48.311Z,6.75
2023-03-11T22:56:15.587Z,5.97
2023-03-11T22:58:42.502Z,6.70
2023-03-11T23:01:09.455Z,7.07
2023-03-11T23:03:36.637Z,6.03
2023-03-11T23:06:07.848Z,6.88
2023-03-11T23:08:34.917Z,7.10
2023-03-11T23:11:03.076Z,6.55
2023-03-11T23:13:30.722Z,8.30
2023-03-11T23:16:02.589Z,6.65
2023-03-11T23:18:29.532Z,7.05
2023-03-11T23:20:56.360Z,6.05
2023-03-11T23:23:23.082Z,6.65
2023-03-11T23:25:49.859Z,7.47
2023-03-11T23:28:16.665Z,6.43
2023-03-11T23:30:43.740Z,5.82
2023-03-11T23:33:10.482Z,6.53
2023-03-11T23:35:42.007Z,5.38
2023-03-11T23:38:09.106Z,5.13
2023-03-11T23:40:35.954Z,5.28
2023-03-11T23:43:02.759Z,4.47
2023-03-11T23:45:29.844Z,4.13
2023-03-11T23:47:56.692Z,3.97
2023-03-11T23:50:23.473Z,3.72
2023-03-11T23:52:50.214Z,4.18
2023-03-11T23:55:16.983Z,4.10
2023-03-11T23:57:43.639Z,3.90
